DLH742 EDDM-RJBB
Flight info
| Callsign | DLH742 |
|---|---|
| Flight time | N/A |
| Altitude | 23000 |
| Route | KIRDI3W KIRDI DCT BUWOQ DCT OBFEZ/N0481F350 DCT STEIN DCT TEGRI DCT DINRO/N0486F370 DCT UDROS UM859 KARDE UN644 ROLIN DCT TAGAR DCT BT DCT BARAD M747 SUBUT T916 LEYLA N161 GASBI/K0891F370 N161 DIVNO/K0891F390 N161 SARIN/K0887S1190 A368 FKG W188 LIKMI W270 BOTKI/K0885S1250 W270 DKO W69 HUR B339 LADIX W34 VAPGU W100 ORAVA W201 UNSEK A326 DONVO G597 AGAVO/N0483F410 Y644 EGOBA Y697 LANAT Y597 MIHOU Y361 SAEKI Y36 ATMUG |
| Aircraft | A359/H-SADE2E3GHIJ1J2J3J4J5M1P2RWXYZ/LB1D1 |
Departure
| Time | 2026-05-04 19:58 |
|---|---|
| Airport | Munich Airport (EDDM) |
Arrival
| Time | N/A |
|---|---|
| Airport | Kansai International Airport (RJBB) |
| Time | Latitude | Longitude | Altitude | Speed | Heading |
|---|---|---|---|---|---|
| 2026-05-04 19:28 | 48.35469 | 11.79734 | 1476 ft | 0 kts | 83° |
| 2026-05-04 19:46 | 48.35467 | 11.79718 | 1491 ft | 4 kts | 83° |
| 2026-05-04 19:47 | 48.35464 | 11.79677 | 1481 ft | 4 kts | 83° |
| 2026-05-04 19:47 | 48.35462 | 11.79645 | 1476 ft | 4 kts | 86° |
| 2026-05-04 19:47 | 48.35464 | 11.79607 | 1476 ft | 4 kts | 119° |
| 2026-05-04 19:47 | 48.35480 | 11.79585 | 1476 ft | 3 kts | 173° |
| 2026-05-04 19:48 | 48.35506 | 11.79581 | 1476 ft | 4 kts | 173° |
| 2026-05-04 19:48 | 48.35513 | 11.79580 | 1476 ft | 0 kts | 173° |
| 2026-05-04 19:51 | 48.35502 | 11.79582 | 1476 ft | 4 kts | 173° |
| 2026-05-04 19:51 | 48.35452 | 11.79590 | 1476 ft | 10 kts | 173° |
| 2026-05-04 19:51 | 48.35362 | 11.79606 | 1476 ft | 16 kts | 173° |
| 2026-05-04 19:52 | 48.35237 | 11.79627 | 1479 ft | 20 kts | 173° |
| 2026-05-04 19:52 | 48.35091 | 11.79653 | 1478 ft | 21 kts | 173° |
| 2026-05-04 19:52 | 48.34973 | 11.79673 | 1479 ft | 17 kts | 173° |
| 2026-05-04 19:52 | 48.34858 | 11.79692 | 1480 ft | 17 kts | 173° |
| 2026-05-04 19:53 | 48.34811 | 11.79813 | 1478 ft | 15 kts | 87° |
| 2026-05-04 19:53 | 48.34822 | 11.79966 | 1486 ft | 15 kts | 83° |
| 2026-05-04 19:53 | 48.34835 | 11.80122 | 1479 ft | 15 kts | 83° |
| 2026-05-04 19:53 | 48.34839 | 11.80279 | 1478 ft | 15 kts | 102° |
| 2026-05-04 19:54 | 48.34773 | 11.80386 | 1476 ft | 14 kts | 162° |
| 2026-05-04 19:54 | 48.34673 | 11.80408 | 1484 ft | 15 kts | 173° |
| 2026-05-04 19:54 | 48.34632 | 11.80415 | 1478 ft | 0 kts | 173° |
| 2026-05-04 19:55 | 48.34630 | 11.80416 | 1479 ft | 1 kts | 173° |
| 2026-05-04 19:55 | 48.34598 | 11.80421 | 1483 ft | 8 kts | 176° |
| 2026-05-04 19:56 | 48.34525 | 11.80386 | 1483 ft | 14 kts | 213° |
| 2026-05-04 19:56 | 48.34466 | 11.80246 | 1485 ft | 17 kts | 257° |
| 2026-05-04 19:56 | 48.34455 | 11.80119 | 1480 ft | 0 kts | 263° |
| 2026-05-04 19:57 | 48.34455 | 11.80116 | 1480 ft | 3 kts | 263° |
| 2026-05-04 19:57 | 48.34435 | 11.79865 | 1477 ft | 55 kts | 263° |
| 2026-05-04 19:57 | 48.34367 | 11.78977 | 1478 ft | 114 kts | 263° |
| 2026-05-04 19:57 | 48.34255 | 11.77519 | 1485 ft | 165 kts | 263° |
| 2026-05-04 19:58 | 48.34118 | 11.75693 | 1981 ft | 170 kts | 264° |
| 2026-05-04 19:58 | 48.33976 | 11.73888 | 2530 ft | 179 kts | 264° |
| 2026-05-04 19:58 | 48.33577 | 11.72029 | 2676 ft | 200 kts | 233° |
| 2026-05-04 19:58 | 48.32394 | 11.70876 | 2774 ft | 215 kts | 189° |
| 2026-05-04 19:59 | 48.30863 | 11.70709 | 3066 ft | 226 kts | 178° |
| 2026-05-04 19:59 | 48.29282 | 11.70812 | 3544 ft | 229 kts | 169° |
| 2026-05-04 19:59 | 48.27800 | 11.71667 | 3979 ft | 235 kts | 149° |
| 2026-05-04 19:59 | 48.26406 | 11.73036 | 4229 ft | 251 kts | 145° |
| 2026-05-04 20:00 | 48.24922 | 11.74596 | 4614 ft | 261 kts | 145° |
| 2026-05-04 20:00 | 48.23440 | 11.76138 | 5173 ft | 264 kts | 146° |
| 2026-05-04 20:00 | 48.21914 | 11.77706 | 5734 ft | 268 kts | 147° |
| 2026-05-04 20:00 | 48.20367 | 11.79301 | 6331 ft | 271 kts | 145° |
| 2026-05-04 20:01 | 48.19017 | 11.81300 | 6918 ft | 277 kts | 125° |
| 2026-05-04 20:01 | 48.18316 | 11.84001 | 7525 ft | 283 kts | 99° |
| 2026-05-04 20:01 | 48.18342 | 11.86969 | 8161 ft | 288 kts | 86° |
| 2026-05-04 20:01 | 48.18573 | 11.89959 | 8793 ft | 291 kts | 85° |
| 2026-05-04 20:02 | 48.18815 | 11.92979 | 9432 ft | 294 kts | 85° |
| 2026-05-04 20:02 | 48.19050 | 11.96055 | 10055 ft | 297 kts | 85° |
| 2026-05-04 20:02 | 48.19277 | 11.99146 | 10658 ft | 300 kts | 86° |
| 2026-05-04 20:02 | 48.19502 | 12.02270 | 11259 ft | 303 kts | 86° |
| 2026-05-04 20:03 | 48.19726 | 12.05419 | 11843 ft | 305 kts | 87° |
| 2026-05-04 20:03 | 48.19950 | 12.08620 | 12359 ft | 312 kts | 87° |
| 2026-05-04 20:03 | 48.20177 | 12.11874 | 12928 ft | 315 kts | 87° |
| 2026-05-04 20:03 | 48.20405 | 12.15159 | 13539 ft | 318 kts | 87° |
| 2026-05-04 20:04 | 48.20634 | 12.18465 | 14072 ft | 321 kts | 87° |
| 2026-05-04 20:04 | 48.20864 | 12.21810 | 14599 ft | 323 kts | 86° |
| 2026-05-04 20:04 | 48.21095 | 12.25169 | 15100 ft | 325 kts | 86° |
| 2026-05-04 20:04 | 48.21325 | 12.28552 | 15609 ft | 327 kts | 86° |
| 2026-05-04 20:05 | 48.21555 | 12.31958 | 16093 ft | 330 kts | 86° |
| 2026-05-04 20:05 | 48.21787 | 12.35390 | 16589 ft | 332 kts | 86° |
| 2026-05-04 20:05 | 48.22020 | 12.38850 | 17085 ft | 334 kts | 86° |
| 2026-05-04 20:05 | 48.22253 | 12.42334 | 17581 ft | 337 kts | 86° |
| 2026-05-04 20:06 | 48.22486 | 12.45838 | 18089 ft | 339 kts | 85° |
| 2026-05-04 20:06 | 48.22721 | 12.49386 | 18525 ft | 342 kts | 85° |
| 2026-05-04 20:06 | 48.22956 | 12.52944 | 18941 ft | 344 kts | 85° |
| 2026-05-04 20:06 | 48.23110 | 12.56535 | 19365 ft | 345 kts | 93° |
| 2026-05-04 20:07 | 48.22894 | 12.60139 | 19633 ft | 353 kts | 99° |
| 2026-05-04 20:07 | 48.22547 | 12.63797 | 19809 ft | 364 kts | 100° |
| 2026-05-04 20:07 | 48.22172 | 12.67612 | 19992 ft | 375 kts | 100° |
| 2026-05-04 20:07 | 48.21790 | 12.71533 | 20184 ft | 386 kts | 100° |
| 2026-05-04 20:08 | 48.21400 | 12.75583 | 20382 ft | 397 kts | 99° |
| 2026-05-04 20:08 | 48.21004 | 12.79740 | 20581 ft | 408 kts | 99° |
| 2026-05-04 20:08 | 48.20774 | 12.84049 | 20785 ft | 420 kts | 93° |
| 2026-05-04 20:08 | 48.20740 | 12.88469 | 21070 ft | 428 kts | 91° |
| 2026-05-04 20:09 | 48.20804 | 12.92957 | 21495 ft | 432 kts | 89° |
| 2026-05-04 20:09 | 48.20906 | 12.97464 | 21961 ft | 434 kts | 89° |
| 2026-05-04 20:09 | 48.21011 | 13.01990 | 22410 ft | 437 kts | 89° |